sensor_id;sensor_type;location;lat;lon;timestamp;pressure;altitude;pressure_sealevel;temperature;humidity
54870;BME280;40756;-37.950;145.008;2023-02-20T00:00:21;101862.52;;;20.73;50.93
54870;BME280;40756;-37.950;145.008;2023-02-20T00:02:51;101861.01;;;21.74;48.93
54870;BME280;40756;-37.950;145.008;2023-02-20T00:05:22;101862.03;;;21.48;48.36
54870;BME280;40756;-37.950;145.008;2023-02-20T00:07:51;101867.19;;;21.01;48.96
54870;BME280;40756;-37.950;145.008;2023-02-20T00:10:21;101859.56;;;21.77;48.24
54870;BME280;40756;-37.950;145.008;2023-02-20T00:12:50;101864.21;;;20.77;49.61
54870;BME280;40756;-37.950;145.008;2023-02-20T00:15:23;101863.91;;;21.39;48.81
54870;BME280;40756;-37.950;145.008;2023-02-20T00:17:52;101870.24;;;21.43;49.16
54870;BME280;40756;-37.950;145.008;2023-02-20T00:20:23;101871.88;;;21.77;49.05
54870;BME280;40756;-37.950;145.008;2023-02-20T00:22:53;101874.57;;;22.06;48.28
54870;BME280;40756;-37.950;145.008;2023-02-20T00:25:23;101875.58;;;21.83;47.28
54870;BME280;40756;-37.950;145.008;2023-02-20T00:27:52;101877.41;;;22.22;46.99
54870;BME280;40756;-37.950;145.008;2023-02-20T00:30:23;101880.87;;;21.71;48.05
54870;BME280;40756;-37.950;145.008;2023-02-20T00:32:54;101882.91;;;21.11;48.01
54870;BME280;40756;-37.950;145.008;2023-02-20T00:35:25;101882.75;;;21.70;46.91
54870;BME280;40756;-37.950;145.008;2023-02-20T00:37:55;101881.51;;;21.12;47.10
54870;BME280;40756;-37.950;145.008;2023-02-20T00:40:26;101879.30;;;21.67;44.74
54870;BME280;40756;-37.950;145.008;2023-02-20T00:42:56;101880.32;;;21.98;43.41
54870;BME280;40756;-37.950;145.008;2023-02-20T00:45:25;101884.27;;;21.96;45.02
54870;BME280;40756;-37.950;145.008;2023-02-20T00:47:55;101889.96;;;22.42;44.44
54870;BME280;40756;-37.950;145.008;2023-02-20T00:50:24;101888.65;;;22.11;43.59
54870;BME280;40756;-37.950;145.008;2023-02-20T00:52:54;101887.71;;;22.35;41.82
54870;BME280;40756;-37.950;145.008;2023-02-20T00:55:23;101897.92;;;22.30;42.00
54870;BME280;40756;-37.950;145.008;2023-02-20T00:57:53;101902.15;;;22.00;41.80
54870;BME280;40756;-37.950;145.008;2023-02-20T01:00:26;101907.04;;;22.35;42.86
54870;BME280;40756;-37.950;145.008;2023-02-20T01:02:56;101912.49;;;21.29;44.24
54870;BME280;40756;-37.950;145.008;2023-02-20T01:05:25;101900.44;;;22.39;43.89
54870;BME280;40756;-37.950;145.008;2023-02-20T01:07:55;101907.03;;;21.47;45.02
54870;BME280;40756;-37.950;145.008;2023-02-20T01:10:24;101904.22;;;22.32;44.38
54870;BME280;40756;-37.950;145.008;2023-02-20T01:12:53;101907.19;;;22.37;43.76
54870;BME280;40756;-37.950;145.008;2023-02-20T01:15:23;101918.02;;;21.71;45.50
54870;BME280;40756;-37.950;145.008;2023-02-20T01:17:52;101909.86;;;22.81;44.30
54870;BME280;40756;-37.950;145.008;2023-02-20T01:20:22;101909.53;;;22.89;42.51
54870;BME280;40756;-37.950;145.008;2023-02-20T01:22:51;101907.71;;;23.53;41.26
54870;BME280;40756;-37.950;145.008;2023-02-20T01:25:21;101910.39;;;22.23;41.99
54870;BME280;40756;-37.950;145.008;2023-02-20T01:27:50;101911.20;;;22.44;42.67
54870;BME280;40756;-37.950;145.008;2023-02-20T01:30:20;101906.33;;;22.34;42.75
54870;BME280;40756;-37.950;145.008;2023-02-20T01:32:49;101902.30;;;22.76;41.84
54870;BME280;40756;-37.950;145.008;2023-02-20T01:35:19;101893.21;;;23.29;41.51
54870;BME280;40756;-37.950;145.008;2023-02-20T01:37:48;101885.46;;;23.50;40.84
54870;BME280;40756;-37.950;145.008;2023-02-20T01:40:20;101878.96;;;23.84;39.72
54870;BME280;40756;-37.950;145.008;2023-02-20T01:42:51;101874.58;;;23.95;39.30
54870;BME280;40756;-37.950;145.008;2023-02-20T01:45:35;101869.70;;;23.80;39.79
54870;BME280;40756;-37.950;145.008;2023-02-20T01:48:05;101866.40;;;23.81;39.98
54870;BME280;40756;-37.950;145.008;2023-02-20T01:50:38;101870.09;;;23.54;39.91
54870;BME280;40756;-37.950;145.008;2023-02-20T01:53:12;101870.37;;;23.52;40.07
54870;BME280;40756;-37.950;145.008;2023-02-20T01:55:45;101868.26;;;23.70;39.96
54870;BME280;40756;-37.950;145.008;2023-02-20T01:58:20;101872.11;;;23.35;39.84
54870;BME280;40756;-37.950;145.008;2023-02-20T02:00:51;101866.44;;;24.33;39.43
54870;BME280;40756;-37.950;145.008;2023-02-20T02:03:25;101862.68;;;24.54;39.22
54870;BME280;40756;-37.950;145.008;2023-02-20T02:06:00;101863.16;;;24.05;39.23
54870;BME280;40756;-37.950;145.008;2023-02-20T02:08:32;101868.82;;;24.19;40.05
54870;BME280;40756;-37.950;145.008;2023-02-20T02:11:04;101863.19;;;23.94;40.38
54870;BME280;40756;-37.950;145.008;2023-02-20T02:13:35;101864.22;;;24.25;39.91
54870;BME280;40756;-37.950;145.008;2023-02-20T02:16:10;101864.50;;;24.47;39.70
54870;BME280;40756;-37.950;145.008;2023-02-20T02:18:52;101862.29;;;24.64;38.59
54870;BME280;40756;-37.950;145.008;2023-02-20T02:21:57;101856.63;;;24.57;40.08
54870;BME280;40756;-37.950;145.008;2023-02-20T02:25:11;101862.89;;;24.36;39.11
54870;BME280;40756;-37.950;145.008;2023-02-20T02:28:10;101859.95;;;25.26;38.17
54870;BME280;40756;-37.950;145.008;2023-02-20T02:31:49;101858.81;;;25.02;38.65
54870;BME280;40756;-37.950;145.008;2023-02-20T02:34:44;101854.98;;;26.44;36.84
54870;BME280;40756;-37.950;145.008;2023-02-20T02:37:23;101852.24;;;24.67;37.24
54870;BME280;40756;-37.950;145.008;2023-02-20T02:40:06;101839.95;;;25.37;37.87
54870;BME280;40756;-37.950;145.008;2023-02-20T02:42:51;101832.41;;;25.97;36.55
54870;BME280;40756;-37.950;145.008;2023-02-20T02:45:30;101827.82;;;25.89;37.06
54870;BME280;40756;-37.950;145.008;2023-02-20T02:48:07;101828.49;;;25.99;36.78
54870;BME280;40756;-37.950;145.008;2023-02-20T02:50:41;101827.77;;;26.29;36.23
54870;BME280;40756;-37.950;145.008;2023-02-20T02:53:13;101828.51;;;25.64;37.02
54870;BME280;40756;-37.950;145.008;2023-02-20T02:55:43;101827.14;;;25.74;37.26
54870;BME280;40756;-37.950;145.008;2023-02-20T02:58:13;101821.06;;;25.74;37.18
54870;BME280;40756;-37.950;145.008;2023-02-20T03:00:49;101819.19;;;26.14;36.09
54870;BME280;40756;-37.950;145.008;2023-02-20T03:03:24;101823.19;;;25.66;36.59
54870;BME280;40756;-37.950;145.008;2023-02-20T03:05:59;101825.39;;;24.72;37.84
54870;BME280;40756;-37.950;145.008;2023-02-20T03:08:36;101829.78;;;25.25;37.22
54870;BME280;40756;-37.950;145.008;2023-02-20T03:11:11;101823.02;;;26.31;36.11
54870;BME280;40756;-37.950;145.008;2023-02-20T03:13:46;101821.27;;;27.13;34.61
54870;BME280;40756;-37.950;145.008;2023-02-20T03:16:20;101822.04;;;26.70;34.77
54870;BME280;40756;-37.950;145.008;2023-02-20T03:18:52;101824.61;;;27.65;33.67
54870;BME280;40756;-37.950;145.008;2023-02-20T03:21:25;101829.81;;;27.92;33.97
54870;BME280;40756;-37.950;145.008;2023-02-20T03:23:58;101838.17;;;26.52;34.54
54870;BME280;40756;-37.950;145.008;2023-02-20T03:26:32;101842.25;;;26.05;34.84
54870;BME280;40756;-37.950;145.008;2023-02-20T03:29:05;101839.34;;;27.21;33.79
54870;BME280;40756;-37.950;145.008;2023-02-20T03:31:42;101840.50;;;27.52;34.01
54870;BME280;40756;-37.950;145.008;2023-02-20T03:34:15;101838.49;;;27.50;33.50
54870;BME280;40756;-37.950;145.008;2023-02-20T03:36:51;101835.67;;;28.01;33.02
54870;BME280;40756;-37.950;145.008;2023-02-20T03:39:27;101831.60;;;28.40;32.55
54870;BME280;40756;-37.950;145.008;2023-02-20T03:41:59;101833.46;;;28.14;32.87
54870;BME280;40756;-37.950;145.008;2023-02-20T03:44:31;101834.30;;;27.57;33.06
54870;BME280;40756;-37.950;145.008;2023-02-20T03:47:02;101831.60;;;27.51;33.46
54870;BME280;40756;-37.950;145.008;2023-02-20T03:49:38;101829.74;;;27.68;33.32
54870;BME280;40756;-37.950;145.008;2023-02-20T03:52:09;101830.64;;;27.78;33.11
54870;BME280;40756;-37.950;145.008;2023-02-20T03:54:39;101830.35;;;26.86;34.36
54870;BME280;40756;-37.950;145.008;2023-02-20T03:57:12;101831.88;;;27.10;34.43
54870;BME280;40756;-37.950;145.008;2023-02-20T03:59:46;101834.37;;;27.14;34.07
54870;BME280;40756;-37.950;145.008;2023-02-20T04:02:21;101832.76;;;26.84;34.31
54870;BME280;40756;-37.950;145.008;2023-02-20T04:04:53;101834.96;;;27.55;33.15
54870;BME280;40756;-37.950;145.008;2023-02-20T04:07:26;101833.91;;;27.74;33.50
54870;BME280;40756;-37.950;145.008;2023-02-20T04:09:59;101836.12;;;28.06;33.32
54870;BME280;40756;-37.950;145.008;2023-02-20T04:12:34;101831.07;;;27.89;32.65
54870;BME280;40756;-37.950;145.008;2023-02-20T04:15:06;101829.58;;;28.03;33.50
54870;BME280;40756;-37.950;145.008;2023-02-20T04:17:41;101831.55;;;27.21;34.50
54870;BME280;40756;-37.950;145.008;2023-02-20T04:20:13;101825.78;;;27.25;34.47
54870;BME280;40756;-37.950;145.008;2023-02-20T04:22:46;101830.62;;;27.66;34.33
54870;BME280;40756;-37.950;145.008;2023-02-20T04:25:24;101833.00;;;27.33;33.75
54870;BME280;40756;-37.950;145.008;2023-02-20T04:27:59;101825.75;;;27.90;34.05
54870;BME280;40756;-37.950;145.008;2023-02-20T04:30:29;101823.13;;;28.09;32.83
54870;BME280;40756;-37.950;145.008;2023-02-20T04:32:59;101825.85;;;26.98;34.00
54870;BME280;40756;-37.950;145.008;2023-02-20T04:35:28;101827.30;;;27.32;33.61
54870;BME280;40756;-37.950;145.008;2023-02-20T04:37:57;101827.12;;;27.42;33.61
54870;BME280;40756;-37.950;145.008;2023-02-20T04:40:27;101833.36;;;27.03;34.58
54870;BME280;40756;-37.950;145.008;2023-02-20T04:42:56;101833.82;;;27.20;33.99
54870;BME280;40756;-37.950;145.008;2023-02-20T04:45:25;101840.31;;;27.09;34.58
54870;BME280;40756;-37.950;145.008;2023-02-20T04:47:55;101843.49;;;27.21;34.33
54870;BME280;40756;-37.950;145.008;2023-02-20T04:50:26;101845.32;;;27.18;33.95
54870;BME280;40756;-37.950;145.008;2023-02-20T04:52:56;101845.84;;;27.07;33.89
54870;BME280;40756;-37.950;145.008;2023-02-20T04:55:26;101834.84;;;27.25;34.09
54870;BME280;40756;-37.950;145.008;2023-02-20T04:57:56;101832.32;;;27.95;33.75
54870;BME280;40756;-37.950;145.008;2023-02-20T05:00:27;101832.71;;;27.97;33.26
54870;BME280;40756;-37.950;145.008;2023-02-20T05:02:59;101836.57;;;27.74;33.39
54870;BME280;40756;-37.950;145.008;2023-02-20T05:05:30;101837.71;;;28.40;33.20
54870;BME280;40756;-37.950;145.008;2023-02-20T05:08:00;101834.92;;;27.85;33.34
54870;BME280;40756;-37.950;145.008;2023-02-20T05:10:32;101837.61;;;27.89;33.70
54870;BME280;40756;-37.950;145.008;2023-02-20T05:13:01;101839.94;;;27.46;34.41
54870;BME280;40756;-37.950;145.008;2023-02-20T05:15:31;101835.80;;;27.41;34.15
54870;BME280;40756;-37.950;145.008;2023-02-20T05:18:00;101839.11;;;27.67;33.28
54870;BME280;40756;-37.950;145.008;2023-02-20T05:20:30;101831.52;;;27.73;33.66
54870;BME280;40756;-37.950;145.008;2023-02-20T05:22:59;101834.66;;;27.10;34.00
54870;BME280;40756;-37.950;145.008;2023-02-20T05:25:28;101833.02;;;26.37;35.18
54870;BME280;40756;-37.950;145.008;2023-02-20T05:28:03;101838.11;;;26.07;34.85
54870;BME280;40756;-37.950;145.008;2023-02-20T05:30:32;101831.01;;;27.49;34.20
54870;BME280;40756;-37.950;145.008;2023-02-20T05:33:02;101832.66;;;27.16;34.32
54870;BME280;40756;-37.950;145.008;2023-02-20T05:35:31;101833.20;;;27.00;34.41
54870;BME280;40756;-37.950;145.008;2023-02-20T05:38:00;101838.65;;;26.61;34.22
54870;BME280;40756;-37.950;145.008;2023-02-20T05:40:30;101837.57;;;26.76;33.69
54870;BME280;40756;-37.950;145.008;2023-02-20T05:42:59;101837.68;;;26.42;34.26
54870;BME280;40756;-37.950;145.008;2023-02-20T05:45:28;101844.10;;;27.03;34.10
54870;BME280;40756;-37.950;145.008;2023-02-20T05:47:58;101841.77;;;26.64;34.99
54870;BME280;40756;-37.950;145.008;2023-02-20T05:50:27;101844.79;;;27.01;34.86
54870;BME280;40756;-37.950;145.008;2023-02-20T05:52:56;101843.09;;;27.35;34.09
54870;BME280;40756;-37.950;145.008;2023-02-20T05:55:26;101845.60;;;26.74;34.34
54870;BME280;40756;-37.950;145.008;2023-02-20T05:57:55;101845.03;;;26.38;34.89
54870;BME280;40756;-37.950;145.008;2023-02-20T06:00:26;101837.54;;;26.43;35.40
54870;BME280;40756;-37.950;145.008;2023-02-20T06:02:55;101840.23;;;27.07;34.80
54870;BME280;40756;-37.950;145.008;2023-02-20T06:05:25;101840.59;;;26.64;35.00
54870;BME280;40756;-37.950;145.008;2023-02-20T06:07:55;101837.52;;;27.04;35.24
54870;BME280;40756;-37.950;145.008;2023-02-20T06:10:25;101842.48;;;26.68;35.62
54870;BME280;40756;-37.950;145.008;2023-02-20T06:12:55;101847.68;;;25.98;36.04
54870;BME280;40756;-37.950;145.008;2023-02-20T06:15:24;101852.04;;;25.81;37.25
54870;BME280;40756;-37.950;145.008;2023-02-20T06:17:54;101848.06;;;26.54;37.01
54870;BME280;40756;-37.950;145.008;2023-02-20T06:20:24;101844.45;;;26.45;36.09
54870;BME280;40756;-37.950;145.008;2023-02-20T06:22:53;101841.85;;;26.87;35.85
54870;BME280;40756;-37.950;145.008;2023-02-20T06:25:23;101838.76;;;26.87;35.23
54870;BME280;40756;-37.950;145.008;2023-02-20T06:27:52;101840.56;;;26.52;36.11
54870;BME280;40756;-37.950;145.008;2023-02-20T06:30:21;101839.14;;;26.73;35.56
54870;BME280;40756;-37.950;145.008;2023-02-20T06:32:51;101838.84;;;26.28;36.27
54870;BME280;40756;-37.950;145.008;2023-02-20T06:35:20;101835.21;;;27.21;35.55
54870;BME280;40756;-37.950;145.008;2023-02-20T06:37:49;101842.65;;;26.35;35.97
54870;BME280;40756;-37.950;145.008;2023-02-20T06:40:19;101844.82;;;26.35;36.45
54870;BME280;40756;-37.950;145.008;2023-02-20T06:42:48;101840.32;;;26.62;36.85
54870;BME280;40756;-37.950;145.008;2023-02-20T06:45:18;101832.03;;;27.15;36.45
54870;BME280;40756;-37.950;145.008;2023-02-20T06:47:55;101832.59;;;26.02;37.58
54870;BME280;40756;-37.950;145.008;2023-02-20T06:50:25;101831.43;;;26.24;37.20
54870;BME280;40756;-37.950;145.008;2023-02-20T06:52:54;101828.35;;;26.28;36.73
54870;BME280;40756;-37.950;145.008;2023-02-20T06:55:24;101829.65;;;26.14;37.16
54870;BME280;40756;-37.950;145.008;2023-02-20T06:57:53;101834.02;;;26.42;37.02
54870;BME280;40756;-37.950;145.008;2023-02-20T07:00:23;101831.49;;;26.68;36.62
54870;BME280;40756;-37.950;145.008;2023-02-20T07:02:53;101833.27;;;26.39;37.20
54870;BME280;40756;-37.950;145.008;2023-02-20T07:05:22;101825.86;;;26.54;37.16
54870;BME280;40756;-37.950;145.008;2023-02-20T07:07:52;101826.23;;;26.59;37.03
54870;BME280;40756;-37.950;145.008;2023-02-20T07:10:22;101826.14;;;26.32;38.07
54870;BME280;40756;-37.950;145.008;2023-02-20T07:12:52;101828.62;;;26.36;38.13
54870;BME280;40756;-37.950;145.008;2023-02-20T07:15:21;101831.52;;;25.79;38.65
54870;BME280;40756;-37.950;145.008;2023-02-20T07:17:50;101834.66;;;25.96;38.06
54870;BME280;40756;-37.950;145.008;2023-02-20T07:20:20;101830.88;;;25.97;37.96
54870;BME280;40756;-37.950;145.008;2023-02-20T07:22:51;101830.02;;;25.95;37.75
54870;BME280;40756;-37.950;145.008;2023-02-20T07:25:21;101829.66;;;25.84;36.94
54870;BME280;40756;-37.950;145.008;2023-02-20T07:27:51;101835.34;;;25.96;35.18
54870;BME280;40756;-37.950;145.008;2023-02-20T07:30:20;101845.88;;;25.38;35.28
54870;BME280;40756;-37.950;145.008;2023-02-20T07:32:49;101843.50;;;25.99;34.70
54870;BME280;40756;-37.950;145.008;2023-02-20T07:35:19;101844.98;;;25.80;33.99
54870;BME280;40756;-37.950;145.008;2023-02-20T07:37:48;101847.32;;;25.66;33.79
54870;BME280;40756;-37.950;145.008;2023-02-20T07:40:19;101850.19;;;25.45;34.23
54870;BME280;40756;-37.950;145.008;2023-02-20T07:42:49;101853.13;;;25.49;33.71
54870;BME280;40756;-37.950;145.008;2023-02-20T07:45:18;101854.11;;;25.80;33.87
54870;BME280;40756;-37.950;145.008;2023-02-20T07:47:49;101854.52;;;26.22;33.66
54870;BME280;40756;-37.950;145.008;2023-02-20T07:50:19;101859.69;;;26.02;33.10
54870;BME280;40756;-37.950;145.008;2023-02-20T07:52:49;101858.19;;;25.69;33.24
54870;BME280;40756;-37.950;145.008;2023-02-20T07:55:19;101859.17;;;25.84;33.60
54870;BME280;40756;-37.950;145.008;2023-02-20T07:57:49;101862.04;;;25.46;34.14
54870;BME280;40756;-37.950;145.008;2023-02-20T08:00:20;101859.63;;;25.36;34.29
54870;BME280;40756;-37.950;145.008;2023-02-20T08:02:50;101873.91;;;24.82;35.15
54870;BME280;40756;-37.950;145.008;2023-02-20T08:05:19;101874.33;;;24.53;35.24
54870;BME280;40756;-37.950;145.008;2023-02-20T08:07:50;101872.22;;;24.45;35.43
54870;BME280;40756;-37.950;145.008;2023-02-20T08:10:23;101881.63;;;23.87;36.16
54870;BME280;40756;-37.950;145.008;2023-02-20T08:12:53;101882.62;;;24.58;36.10
54870;BME280;40756;-37.950;145.008;2023-02-20T08:15:23;101886.51;;;24.20;36.73
54870;BME280;40756;-37.950;145.008;2023-02-20T08:17:54;101884.46;;;23.97;36.62
54870;BME280;40756;-37.950;145.008;2023-02-20T08:20:23;101886.26;;;23.77;37.17
54870;BME280;40756;-37.950;145.008;2023-02-20T08:22:53;101890.83;;;23.84;37.19
54870;BME280;40756;-37.950;145.008;2023-02-20T08:25:23;101898.67;;;23.44;37.97
54870;BME280;40756;-37.950;145.008;2023-02-20T08:27:52;101905.23;;;23.35;37.92
54870;BME280;40756;-37.950;145.008;2023-02-20T08:30:24;101912.26;;;23.97;37.16
54870;BME280;40756;-37.950;145.008;2023-02-20T08:32:54;101914.52;;;23.37;37.66
54870;BME280;40756;-37.950;145.008;2023-02-20T08:35:24;101910.85;;;24.06;37.01
54870;BME280;40756;-37.950;145.008;2023-02-20T08:37:54;101909.33;;;23.46;37.76
54870;BME280;40756;-37.950;145.008;2023-02-20T08:40:23;101911.54;;;23.38;37.53
54870;BME280;40756;-37.950;145.008;2023-02-20T08:42:52;101914.74;;;23.60;37.43
54870;BME280;40756;-37.950;145.008;2023-02-20T08:45:22;101918.92;;;22.68;38.65
54870;BME280;40756;-37.950;145.008;2023-02-20T08:47:55;101920.55;;;23.03;37.94
54870;BME280;40756;-37.950;145.008;2023-02-20T08:50:24;101927.37;;;22.98;38.54
54870;BME280;40756;-37.950;145.008;2023-02-20T08:52:54;101924.66;;;22.15;39.08
54870;BME280;40756;-37.950;145.008;2023-02-20T08:55:24;101933.72;;;22.05;39.42
54870;BME280;40756;-37.950;145.008;2023-02-20T08:57:53;101932.98;;;22.83;38.38
54870;BME280;40756;-37.950;145.008;2023-02-20T09:00:23;101935.05;;;23.26;38.15
54870;BME280;40756;-37.950;145.008;2023-02-20T09:02:52;101940.45;;;22.95;38.12
54870;BME280;40756;-37.950;145.008;2023-02-20T09:05:22;101947.33;;;23.09;38.09
54870;BME280;40756;-37.950;145.008;2023-02-20T09:07:51;101953.77;;;22.92;38.47
54870;BME280;40756;-37.950;145.008;2023-02-20T09:10:21;101956.06;;;22.79;38.91
54870;BME280;40756;-37.950;145.008;2023-02-20T09:12:51;101956.12;;;22.82;38.53
54870;BME280;40756;-37.950;145.008;2023-02-20T09:15:20;101962.66;;;22.90;39.23
54870;BME280;40756;-37.950;145.008;2023-02-20T09:17:51;101971.16;;;22.32;39.42
54870;BME280;40756;-37.950;145.008;2023-02-20T09:20:22;101969.37;;;22.64;39.37
54870;BME280;40756;-37.950;145.008;2023-02-20T09:22:56;101970.61;;;22.16;40.06
54870;BME280;40756;-37.950;145.008;2023-02-20T09:25:25;101972.91;;;22.35;39.93
54870;BME280;40756;-37.950;145.008;2023-02-20T09:27:55;101975.57;;;22.61;39.98
54870;BME280;40756;-37.950;145.008;2023-02-20T09:30:24;101974.96;;;22.40;40.02
54870;BME280;40756;-37.950;145.008;2023-02-20T09:32:54;101983.94;;;22.17;40.47
54870;BME280;40756;-37.950;145.008;2023-02-20T09:35:25;101993.24;;;22.39;40.63
54870;BME280;40756;-37.950;145.008;2023-02-20T09:37:56;101993.88;;;22.43;40.30
54870;BME280;40756;-37.950;145.008;2023-02-20T09:40:27;101995.94;;;21.98;40.50
54870;BME280;40756;-37.950;145.008;2023-02-20T09:43:08;101994.09;;;22.20;40.12
54870;BME280;40756;-37.950;145.008;2023-02-20T09:45:50;101994.49;;;22.79;39.93
54870;BME280;40756;-37.950;145.008;2023-02-20T09:48:30;102001.42;;;22.86;39.50
54870;BME280;40756;-37.950;145.008;2023-02-20T09:51:04;102008.34;;;22.30;39.66
54870;BME280;40756;-37.950;145.008;2023-02-20T09:53:42;102011.64;;;22.37;39.40
54870;BME280;40756;-37.950;145.008;2023-02-20T09:56:18;102009.60;;;22.42;39.17
54870;BME280;40756;-37.950;145.008;2023-02-20T09:58:56;102013.39;;;22.30;39.42
54870;BME280;40756;-37.950;145.008;2023-02-20T10:01:27;102011.15;;;22.16;39.55
54870;BME280;40756;-37.950;145.008;2023-02-20T10:04:00;102012.32;;;22.06;39.93
54870;BME280;40756;-37.950;145.008;2023-02-20T10:06:32;102018.85;;;22.34;39.73
54870;BME280;40756;-37.950;145.008;2023-02-20T10:09:05;102025.99;;;22.48;39.51
54870;BME280;40756;-37.950;145.008;2023-02-20T10:11:49;102037.39;;;22.03;40.20
54870;BME280;40756;-37.950;145.008;2023-02-20T10:14:36;102044.26;;;21.93;40.68
54870;BME280;40756;-37.950;145.008;2023-02-20T10:17:18;102054.38;;;22.58;40.60
54870;BME280;40756;-37.950;145.008;2023-02-20T10:19:52;102055.81;;;22.31;40.85
54870;BME280;40756;-37.950;145.008;2023-02-20T10:22:32;102053.51;;;22.10;40.70
54870;BME280;40756;-37.950;145.008;2023-02-20T10:25:10;102059.43;;;22.05;41.52
54870;BME280;40756;-37.950;145.008;2023-02-20T10:27:52;102057.80;;;22.40;41.56
54870;BME280;40756;-37.950;145.008;2023-02-20T10:30:28;102048.71;;;22.21;41.55
54870;BME280;40756;-37.950;145.008;2023-02-20T10:33:09;102047.82;;;21.79;41.78
54870;BME280;40756;-37.950;145.008;2023-02-20T10:35:46;102068.55;;;21.71;41.59
54870;BME280;40756;-37.950;145.008;2023-02-20T10:38:22;102064.12;;;21.86;41.05
54870;BME280;40756;-37.950;145.008;2023-02-20T10:41:00;102051.73;;;22.17;40.70
54870;BME280;40756;-37.950;145.008;2023-02-20T10:43:36;102041.00;;;22.08;40.51
54870;BME280;40756;-37.950;145.008;2023-02-20T10:46:13;102049.36;;;21.91;40.32
54870;BME280;40756;-37.950;145.008;2023-02-20T10:48:45;102057.23;;;22.02;40.57
54870;BME280;40756;-37.950;145.008;2023-02-20T10:51:20;102055.20;;;22.16;40.54
54870;BME280;40756;-37.950;145.008;2023-02-20T10:53:57;102063.66;;;21.95;40.57
54870;BME280;40756;-37.950;145.008;2023-02-20T10:56:33;102072.10;;;21.94;40.16
54870;BME280;40756;-37.950;145.008;2023-02-20T10:59:09;102071.60;;;21.56;40.16
54870;BME280;40756;-37.950;145.008;2023-02-20T11:01:41;102069.50;;;21.56;41.07
54870;BME280;40756;-37.950;145.008;2023-02-20T11:04:14;102075.91;;;21.43;41.47
54870;BME280;40756;-37.950;145.008;2023-02-20T11:06:49;102076.12;;;21.79;40.95
54870;BME280;40756;-37.950;145.008;2023-02-20T11:09:21;102078.83;;;21.42;41.58
54870;BME280;40756;-37.950;145.008;2023-02-20T11:11:53;102082.95;;;21.76;41.60
54870;BME280;40756;-37.950;145.008;2023-02-20T11:14:27;102096.04;;;21.14;42.36
54870;BME280;40756;-37.950;145.008;2023-02-20T11:17:02;102094.59;;;21.10;42.75
54870;BME280;40756;-37.950;145.008;2023-02-20T11:19:39;102090.00;;;21.60;42.97
54870;BME280;40756;-37.950;145.008;2023-02-20T11:22:10;102091.67;;;21.12;43.47
54870;BME280;40756;-37.950;145.008;2023-02-20T11:24:41;102098.55;;;21.12;43.73
54870;BME280;40756;-37.950;145.008;2023-02-20T11:27:14;102102.93;;;21.08;43.70
54870;BME280;40756;-37.950;145.008;2023-02-20T11:29:50;102103.92;;;20.78;43.95
54870;BME280;40756;-37.950;145.008;2023-02-20T11:32:29;102101.31;;;20.97;43.96
54870;BME280;40756;-37.950;145.008;2023-02-20T11:35:34;102104.63;;;21.22;44.01
54870;BME280;40756;-37.950;145.008;2023-02-20T11:38:30;102108.92;;;20.84;44.38
54870;BME280;40756;-37.950;145.008;2023-02-20T11:41:08;102113.31;;;21.08;44.32
54870;BME280;40756;-37.950;145.008;2023-02-20T11:43:42;102120.06;;;21.20;43.95
54870;BME280;40756;-37.950;145.008;2023-02-20T11:46:16;102119.31;;;20.79;44.59
54870;BME280;40756;-37.950;145.008;2023-02-20T11:49:04;102109.38;;;21.05;44.75
54870;BME280;40756;-37.950;145.008;2023-02-20T11:51:37;102102.09;;;21.21;44.56
54870;BME280;40756;-37.950;145.008;2023-02-20T11:54:12;102115.61;;;21.41;44.53
54870;BME280;40756;-37.950;145.008;2023-02-20T11:57:22;102137.68;;;21.01;44.72
54870;BME280;40756;-37.950;145.008;2023-02-20T12:00:10;102167.01;;;21.00;44.50
54870;BME280;40756;-37.950;145.008;2023-02-20T12:02:50;102181.61;;;21.23;44.42
54870;BME280;40756;-37.950;145.008;2023-02-20T12:05:20;102165.45;;;21.14;44.07
54870;BME280;40756;-37.950;145.008;2023-02-20T12:07:59;102163.53;;;21.32;43.72
54870;BME280;40756;-37.950;145.008;2023-02-20T12:10:45;102165.83;;;21.49;43.53
54870;BME280;40756;-37.950;145.008;2023-02-20T12:13:17;102156.04;;;21.55;43.55
54870;BME280;40756;-37.950;145.008;2023-02-20T12:15:54;102150.61;;;21.50;43.83
54870;BME280;40756;-37.950;145.008;2023-02-20T12:18:54;102148.73;;;21.06;43.74
54870;BME280;40756;-37.950;145.008;2023-02-20T12:21:32;102138.69;;;21.15;43.60
54870;BME280;40756;-37.950;145.008;2023-02-20T12:24:24;102128.46;;;21.44;43.50
54870;BME280;40756;-37.950;145.008;2023-02-20T12:27:00;102129.99;;;21.57;43.29
54870;BME280;40756;-37.950;145.008;2023-02-20T12:29:41;102130.63;;;21.59;43.46
54870;BME280;40756;-37.950;145.008;2023-02-20T12:32:25;102124.44;;;21.54;43.54
54870;BME280;40756;-37.950;145.008;2023-02-20T12:35:18;102122.20;;;21.23;43.79
54870;BME280;40756;-37.950;145.008;2023-02-20T12:37:58;102121.58;;;21.70;43.70
54870;BME280;40756;-37.950;145.008;2023-02-20T12:40:40;102124.42;;;21.46;44.19
54870;BME280;40756;-37.950;145.008;2023-02-20T12:43:26;102125.03;;;21.45;43.98
54870;BME280;40756;-37.950;145.008;2023-02-20T12:46:07;102128.72;;;21.66;44.13
54870;BME280;40756;-37.950;145.008;2023-02-20T12:48:45;102135.48;;;21.71;43.65
54870;BME280;40756;-37.950;145.008;2023-02-20T12:51:26;102135.10;;;21.90;43.79